Map

Track Data

SID SEASON NUMBER BASIN SUBBASIN NAME ISO_TIME NATURE LAT LON WMO_WIND WMO_PRES WMO_AGENCY TRACK_TYPE DIST2LAND LANDFALL IFLAG USA_AGENCY USA_ATCF_ID USA_LAT USA_LON USA_RECORD USA_STATUS USA_WIND USA_PRES USA_SSHS USA_R34_NE USA_R34_SE USA_R34_SW USA_R34_NW USA_R50_NE USA_R50_SE USA_R50_SW USA_R50_NW USA_R64_NE USA_R64_SE USA_R64_SW USA_R64_NW USA_POCI USA_ROCI USA_RMW USA_EYE TOKYO_LAT TOKYO_LON TOKYO_GRADE TOKYO_WIND TOKYO_PRES TOKYO_R50_DIR TOKYO_R50_LONG TOKYO_R50_SHORT TOKYO_R30_DIR TOKYO_R30_LONG TOKYO_R30_SHORT TOKYO_LAND CMA_LAT CMA_LON CMA_CAT CMA_WIND CMA_PRES HKO_LAT HKO_LON HKO_CAT HKO_WIND HKO_PRES NEWDELHI_LAT NEWDELHI_LON NEWDELHI_GRADE NEWDELHI_WIND NEWDELHI_PRES NEWDELHI_CI NEWDELHI_DP NEWDELHI_POCI REUNION_LAT REUNION_LON REUNION_TYPE REUNION_WIND REUNION_PRES REUNION_TNUM REUNION_CI REUNION_RMW REUNION_R34_NE REUNION_R34_SE REUNION_R34_SW REUNION_R34_NW REUNION_R50_NE REUNION_R50_SE REUNION_R50_SW REUNION_R50_NW REUNION_R64_NE REUNION_R64_SE REUNION_R64_SW REUNION_R64_NW BOM_LAT BOM_LON BOM_TYPE BOM_WIND BOM_PRES BOM_TNUM BOM_CI BOM_RMW BOM_R34_NE BOM_R34_SE BOM_R34_SW BOM_R34_NW BOM_R50_NE BOM_R50_SE BOM_R50_SW BOM_R50_NW BOM_R64_NE BOM_R64_SE BOM_R64_SW BOM_R64_NW BOM_ROCI BOM_POCI BOM_EYE BOM_POS_METHOD BOM_PRES_METHOD NADI_LAT NADI_LON NADI_CAT NADI_WIND NADI_PRES WELLINGTON_LAT WELLINGTON_LON WELLINGTON_WIND WELLINGTON_PRES DS824_LAT DS824_LON DS824_STAGE DS824_WIND DS824_PRES TD9636_LAT TD9636_LON TD9636_STAGE TD9636_WIND TD9636_PRES TD9635_LAT TD9635_LON TD9635_WIND TD9635_PRES TD9635_ROCI NEUMANN_LAT NEUMANN_LON NEUMANN_CLASS NEUMANN_WIND NEUMANN_PRES MLC_LAT MLC_LON MLC_CLASS MLC_WIND MLC_PRES USA_GUST BOM_GUST BOM_GUST_PER REUNION_GUST REUNION_GUST_PER USA_SEAHGT USA_SEARAD_NE USA_SEARAD_SE USA_SEARAD_SW USA_SEARAD_NW STORM_SPEED STORM_DIR
1976063S12115 1976 25 SI WA NOT_NAMED 1976-03-03 00:00:00 TS -12.4000 115.100 main 403 403 O________OO___ jtwc_sh SH181976 -12.4000 115.100 -1 -12.4000 115.100 TC -12.4000 115.100 2 8 234
1976063S12115 1976 25 SI WA NOT_NAMED 1976-03-03 01:00:00 TS -12.4844 114.986 main 414 414 P________PP___ SH181976 -12.4866 114.989 -1 -12.4866 114.989 TC -12.4801 114.980 2 8 233
1976063S12115 1976 25 SI WA NOT_NAMED 1976-03-03 03:00:00 TS -12.6515 114.754 main 437 436 P________PP___ SH181976 -12.6575 114.763 -1 -12.6575 114.763 TC -12.6393 114.738 2 8 234
1976063S12115 1976 25 SI WA NOT_NAMED 1976-03-03 04:00:00 TS -12.7332 114.636 main 436 436 P________PP___ SH181976 -12.7408 114.646 -1 -12.7408 114.646 TC -12.7180 114.616 2 9 236
1976063S12115 1976 25 SI WA NOT_NAMED 1976-03-03 06:00:00 TS -12.8909 114.390 main 459 459 O________OP___ jtwc_sh SH181976 -12.9000 114.400 -1 -12.9000 114.400 TC -12.8727 114.370 2 9 237
1976063S12115 1976 25 SI WA NOT_NAMED 1976-03-03 07:00:00 TS -12.9661 114.262 main 471 471 P________PP___ SH181976 -12.9750 114.270 -1 -12.9750 114.270 TC -12.9482 114.246 2 9 240
1976063S12115 1976 25 SI WA NOT_NAMED 1976-03-03 09:00:00 TS -13.1082 113.998 main 486 486 P________PP___ SH181976 -13.1150 114.000 -1 -13.1150 114.000 TC -13.0947 113.993 2 9 242
1976063S12115 1976 25 SI WA NOT_NAMED 1976-03-03 10:00:00 TS -13.1751 113.864 main 498 498 P________PP___ SH181976 -13.1800 113.864 -1 -13.1800 113.864 TC -13.1653 113.864 2 9 244
1976063S12115 1976 25 SI WA NOT_NAMED 1976-03-03 12:00:00 TS -13.3000 113.600 main 515 515 O________OO___ jtwc_sh SH181976 -13.3000 113.600 -1 -13.3000 113.600 TC -13.3000 113.600 2 8 244
1976063S12115 1976 25 SI WA NOT_NAMED 1976-03-03 13:00:00 TS -13.3584 113.475 main 529 529 P________PP___ SH181976 -13.3556 113.480 -1 -13.3556 113.480 TC -13.3638 113.465 2 8 245
1976063S12115 1976 25 SI WA NOT_NAMED 1976-03-03 15:00:00 TS -13.4662 113.231 main 548 548 P________PP___ SH181976 -13.4574 113.250 -1 -13.4574 113.250 TC -13.4839 113.192 2 8 246
1976063S12115 1976 25 SI WA NOT_NAMED 1976-03-03 16:00:00 TS -13.5169 113.109 main 551 551 P________PP___ SH181976 -13.5053 113.136 -1 -13.5053 113.136 TC -13.5402 113.057 2 8 247
1976063S12115 1976 25 SI WA NOT_NAMED 1976-03-03 18:00:00 TS -13.6151 112.863 main 568 568 O________OP___ jtwc_sh SH181976 -13.6000 112.900 -1 -13.6000 112.900 TC -13.6452 112.790 2 8 248
1976063S12115 1976 25 SI WA NOT_NAMED 1976-03-03 19:00:00 TS -13.6664 112.728 main 583 583 P________PP___ SH181976 -13.6527 112.762 -1 -13.6527 112.762 TC -13.6940 112.661 2 8 249
1976063S12115 1976 25 SI WA NOT_NAMED 1976-03-03 21:00:00 TS -13.7664 112.458 main 599 599 P________PP___ SH181976 -13.7576 112.478 -1 -13.7576 112.478 TC -13.7839 112.418 2 8 249
1976063S12115 1976 25 SI WA NOT_NAMED 1976-03-03 22:00:00 TS -13.8137 112.328 main 604 604 P________PP___ SH181976 -13.8080 112.341 -1 -13.8080 112.341 TC -13.8251 112.304 2 7 249
1976063S12115 1976 25 SI WA NOT_NAMED 1976-03-04 00:00:00 TS -13.9000 112.100 main 617 616 O________OO___ jtwc_sh SH181976 -13.9000 112.100 -1 -13.9000 112.100 TC -13.9000 112.100 2 7 248
1976063S12115 1976 25 SI WA NOT_NAMED 1976-03-04 01:00:00 TS -13.9398 112.011 main 616 616 P________PP___ SH181976 -13.9416 112.008 -1 -13.9416 112.008 TC -13.9361 112.017 2 5 244
1976063S12115 1976 25 SI WA NOT_NAMED 1976-03-04 03:00:00 TS -14.0100 111.867 main 627 627 P________PP___ SH181976 -14.0149 111.862 -1 -14.0149 111.862 TC -14.0002 111.875 2 4 243
1976063S12115 1976 25 SI WA NOT_NAMED 1976-03-04 04:00:00 TS -14.0406 111.807 main 627 627 P________PP___ SH181976 -14.0466 111.804 -1 -14.0466 111.804 TC -14.0287 111.814 2 4 242
1976063S12115 1976 25 SI WA NOT_NAMED 1976-03-04 06:00:00 TS -14.0932 111.702 main 638 638 O________OP___ jtwc_sh SH181976 -14.1000 111.700 -1 -14.1000 111.700 TC -14.0795 111.705 2 3 244
1976063S12115 1976 25 SI WA NOT_NAMED 1976-03-04 07:00:00 TS -14.1157 111.649 main 638 638 P________PP___ SH181976 -14.1224 111.647 -1 -14.1224 111.647 TC -14.1024 111.654 2 3 247
1976063S12115 1976 25 SI WA NOT_NAMED 1976-03-04 09:00:00 TS -14.1530 111.552 main 649 649 P________PP___ SH181976 -14.1575 111.550 -1 -14.1575 111.550 TC -14.1441 111.557 2 3 250
1976063S12115 1976 25 SI WA NOT_NAMED 1976-03-04 10:00:00 TS -14.1692 111.504 main 649 649 P________PP___ SH181976 -14.1721 111.502 -1 -14.1721 111.502 TC -14.1634 111.507 2 3 252
1976063S12115 1976 25 SI WA NOT_NAMED 1976-03-04 12:00:00 TS -14.2000 111.400 main 650 650 O________OO___ jtwc_sh SH181976 -14.2000 111.400 -1 -14.2000 111.400 TC -14.2000 111.400 2 3 253
1976063S12115 1976 25 SI WA NOT_NAMED 1976-03-04 13:00:00 TS -14.2186 111.340 main 651 651 P________PP___ SH181976 -14.2167 111.342 -1 -14.2167 111.342 TC -14.2177 111.341 2 4 253
1976063S12115 1976 25 SI WA NOT_NAMED 1976-03-04 15:00:00 TS -14.2550 111.212 main 663 663 P________PP___ SH181976 -14.2500 111.215 -1 -14.2500 111.215 TC -14.2525 111.210 2 4 254
1976063S12115 1976 25 SI WA NOT_NAMED 1976-03-04 16:00:00 TS -14.2729 111.144 main 663 663 P________PP___ SH181976 -14.2666 111.147 -1 -14.2666 111.147 TC -14.2695 111.140 2 4 256
1976063S12115 1976 25 SI WA NOT_NAMED 1976-03-04 18:00:00 TS -14.3074 110.998 main 665 665 O________OP___ jtwc_sh SH181976 -14.3000 111.000 -1 -14.3000 111.000 TC -14.3029 110.990 2 4 256
1976063S12115 1976 25 SI WA NOT_NAMED 1976-03-04 19:00:00 TS -14.3259 110.923 main 666 666 P________PP___ SH181976 -14.3167 110.922 -1 -14.3167 110.922 TC -14.3194 110.912 2 5 257
1976063S12115 1976 25 SI WA NOT_NAMED 1976-03-04 21:00:00 TS -14.3611 110.764 main 679 679 P________PP___ SH181976 -14.3501 110.758 -1 -14.3501 110.758 TC -14.3519 110.750 2 5 258
1976063S12115 1976 25 SI WA NOT_NAMED 1976-03-04 22:00:00 TS -14.3765 110.679 main 680 680 P________PP___ SH181976 -14.3667 110.673 -1 -14.3667 110.673 TC -14.3680 110.667 2 5 261
1976063S12115 1976 25 SI WA NOT_NAMED 1976-03-05 00:00:00 TS -14.4000 110.500 main 684 684 O________OO___ jtwc_sh SH181976 -14.4000 110.500 -1 -14.4000 110.500 TC -14.4000 110.500 2 5 264
1976063S12115 1976 25 SI WA NOT_NAMED 1976-03-05 01:00:00 TS -14.4065 110.406 main 686 686 ______________ SH181976 -1 TC 2 6 268
1976063S12115 1976 25 SI WA NOT_NAMED 1976-03-05 03:00:00 TS -14.4112 110.207 main 691 ______________ SH181976 -1 TC 2 6 269

About IBTrACS Database

This database is a web-friendly format of International Best Track Archive for Climate Stewardship (IBTrACS), a global best track data archive curated by NOAA dating back to 1842.

Updated: 2021-12-03